Auberry, California
Current Conditions -  °F | °C
As of 10:53 PM on Wednesday 22 Oct 2014 (Local Time) from KFAT Reporting Station
Clear Clear  
Wind Chill: 17°   Ceiling: Unl
Heat Index: 17°   Visibility: 10mi
Dew Point:   Wind: 3mph
Humidity: 54%   Direction: 120°ESE
Pressure: 30.05"   Gusts: NA
Location:  37.08°N, 119.49°W
Report Text: KFAT 230553Z 12003KT 10SM CLR 17/08 A3005 RMK AO2 SLP172 T01720078 10250 20172 50007
Loading
Personal Weather Stations






























Interactive Weather Map
Tropical Storm Tracking
New forecast layout! Learn more

10-Day Weather Forecast

Advertisements
Track Severe Weather on mobile